Time;durP1;ratioP1;P1;durP2;ratioP2;P2;SDS_P1;SDS_P2;PMS_P1;PMS_P2;Temp;Humidity;BMP_temperature;BMP_pressure;BME280_temperature;BME280_humidity;BME280_pressure;Samples;Min_cycle;Max_cycle;Signal;HPM_P1;HPM_P2
2022/01/07 00:01:20;;;;;;;19.03;9.60;;;;;;;;;;5073379;28;20433;-61
2022/01/07 00:03:46;;;;;;;17.03;9.27;;;;;;;;;;5073085;28;20470;-63
2022/01/07 00:06:12;;;;;;;20.40;9.03;;;;;;;;;;5073218;28;20487;-63
2022/01/07 00:08:38;;;;;;;24.83;9.27;;;;;;;;;;5072752;28;20466;-61
2022/01/07 00:11:06;;;;;;;19.43;9.07;;;;;;;;;;5073242;28;20548;-61
2022/01/07 00:13:32;;;;;;;23.70;10.27;;;;;;;;;;5072948;28;20838;-62
2022/01/07 00:15:58;;;;;;;17.97;8.00;;;;;;;;;;5072925;28;20434;-62
2022/01/07 00:18:24;;;;;;;19.30;9.07;;;;;;;;;;5072984;28;20465;-61
2022/01/07 00:20:50;;;;;;;16.77;9.30;;;;;;;;;;5072701;28;20445;-61
2022/01/07 00:23:17;;;;;;;17.20;9.47;;;;;;;;;;5073025;28;20450;-62
2022/01/07 00:25:43;;;;;;;24.37;10.27;;;;;;;;;;5072655;28;20445;-61
2022/01/07 00:28:10;;;;;;;12.80;8.90;;;;;;;;;;5070978;28;20434;-63
2022/01/07 00:30:36;;;;;;;19.67;9.37;;;;;;;;;;5072412;28;20996;-64
2022/01/07 00:33:02;;;;;;;20.20;9.43;;;;;;;;;;5072680;28;20440;-63
2022/01/07 00:35:28;;;;;;;22.03;9.53;;;;;;;;;;5072669;28;20476;-64
2022/01/07 00:37:54;;;;;;;18.30;8.77;;;;;;;;;;5072519;28;20438;-63
2022/01/07 00:40:22;;;;;;;15.07;8.33;;;;;;;;;;5072555;28;20191;-62
2022/01/07 00:42:50;;;;;;;17.57;8.50;;;;;;;;;;5072635;28;20468;-63
2022/01/07 00:45:17;;;;;;;15.37;9.20;;;;;;;;;;5072476;28;20965;-62
2022/01/07 00:47:44;;;;;;;16.17;8.50;;;;;;;;;;5072357;28;20452;-67
2022/01/07 00:50:11;;;;;;;16.13;8.63;;;;;;;;;;5072288;28;20477;-65
2022/01/07 00:52:37;;;;;;;16.40;8.50;;;;;;;;;;5072080;28;20428;-63
2022/01/07 00:55:03;;;;;;;17.93;8.37;;;;;;;;;;5072040;28;20430;-63
2022/01/07 00:57:30;;;;;;;14.63;8.13;;;;;;;;;;5072003;28;20426;-64
2022/01/07 00:59:56;;;;;;;19.83;8.33;;;;;;;;;;5072083;28;20449;-64
2022/01/07 01:02:23;;;;;;;14.40;7.93;;;;;;;;;;5072226;28;20461;-63
2022/01/07 01:04:49;;;;;;;16.90;7.60;;;;;;;;;;5072212;28;20454;-61
2022/01/07 01:07:15;;;;;;;17.77;8.43;;;;;;;;;;5072272;28;20422;-63
2022/01/07 01:09:42;;;;;;;17.90;8.37;;;;;;;;;;5072036;28;20497;-63
2022/01/07 01:12:08;;;;;;;15.30;6.80;;;;;;;;;;5072063;28;20852;-64
2022/01/07 01:14:34;;;;;;;13.70;7.10;;;;;;;;;;5072202;28;20495;-64
2022/01/07 01:17:00;;;;;;;15.80;7.47;;;;;;;;;;5072013;28;20864;-64
2022/01/07 01:19:28;;;;;;;15.50;7.53;;;;;;;;;;5072006;28;20878;-63
2022/01/07 01:21:54;;;;;;;17.20;7.80;;;;;;;;;;5071967;28;20445;-64
2022/01/07 01:24:21;;;;;;;13.40;6.87;;;;;;;;;;5071958;28;20430;-62
2022/01/07 01:26:47;;;;;;;16.83;7.20;;;;;;;;;;5071864;28;20437;-64
2022/01/07 01:29:13;;;;;;;14.13;6.63;;;;;;;;;;5071758;28;20472;-64
2022/01/07 01:31:39;;;;;;;12.67;6.90;;;;;;;;;;5071849;28;20196;-65
2022/01/07 01:34:05;;;;;;;14.50;7.17;;;;;;;;;;5071892;28;20442;-63
2022/01/07 01:36:32;;;;;;;15.83;6.73;;;;;;;;;;5071991;28;20524;-64
2022/01/07 01:38:59;;;;;;;10.77;6.47;;;;;;;;;;5071758;28;20440;-65
2022/01/07 01:41:25;;;;;;;11.30;5.93;;;;;;;;;;5071949;28;20430;-62
2022/01/07 01:43:51;;;;;;;9.77;5.67;;;;;;;;;;5071784;28;20468;-63
2022/01/07 01:46:18;;;;;;;12.13;6.60;;;;;;;;;;5076002;28;20445;-65
2022/01/07 01:48:44;;;;;;;15.50;6.30;;;;;;;;;;5075534;28;20547;-63
2022/01/07 01:51:10;;;;;;;10.87;5.40;;;;;;;;;;5075718;28;20465;-65
2022/01/07 01:53:37;;;;;;;12.17;6.30;;;;;;;;;;5073775;28;20457;-64
2022/01/07 01:56:04;;;;;;;12.83;6.00;;;;;;;;;;5075802;28;20458;-64
2022/01/07 01:58:30;;;;;;;11.93;6.43;;;;;;;;;;5075562;28;20445;-65
2022/01/07 02:00:56;;;;;;;14.00;6.17;;;;;;;;;;5075261;28;20632;-65
2022/01/07 02:03:22;;;;;;;10.13;5.50;;;;;;;;;;5075393;28;20461;-64
2022/01/07 02:05:48;;;;;;;10.77;5.30;;;;;;;;;;5075567;28;20495;-64
2022/01/07 02:08:14;;;;;;;9.83;5.17;;;;;;;;;;5075561;28;20205;-64
2022/01/07 02:10:42;;;;;;;13.27;5.50;;;;;;;;;;5075271;28;20894;-64
2022/01/07 02:13:08;;;;;;;9.47;4.93;;;;;;;;;;5075294;28;20540;-63
2022/01/07 02:15:34;;;;;;;11.13;4.83;;;;;;;;;;5075373;28;20521;-65
2022/01/07 02:18:00;;;;;;;12.77;5.60;;;;;;;;;;5075270;28;20430;-63
2022/01/07 02:20:28;;;;;;;10.50;5.10;;;;;;;;;;5075325;28;20437;-64
2022/01/07 02:22:55;;;;;;;10.67;4.77;;;;;;;;;;5075167;28;20467;-64
2022/01/07 02:25:21;;;;;;;9.17;5.13;;;;;;;;;;5075331;28;20851;-64
2022/01/07 02:27:47;;;;;;;13.07;4.80;;;;;;;;;;5075151;28;20963;-63
2022/01/07 02:30:15;;;;;;;8.97;5.00;;;;;;;;;;5074870;28;20997;-65
2022/01/07 02:32:41;;;;;;;10.67;4.80;;;;;;;;;;5074884;28;20844;-64
2022/01/07 02:35:08;;;;;;;10.27;4.80;;;;;;;;;;5074884;28;20449;-64
2022/01/07 02:37:36;;;;;;;10.50;4.30;;;;;;;;;;5075000;28;20454;-64
2022/01/07 02:40:02;;;;;;;11.27;4.93;;;;;;;;;;5074908;28;20529;-63
2022/01/07 02:42:28;;;;;;;9.23;4.80;;;;;;;;;;5074906;28;21090;-63
2022/01/07 02:44:54;;;;;;;10.03;4.80;;;;;;;;;;5074693;28;20533;-64
2022/01/07 02:47:21;;;;;;;10.27;4.87;;;;;;;;;;5074828;28;20516;-63
2022/01/07 02:49:47;;;;;;;9.17;4.07;;;;;;;;;;5074600;28;20224;-63
2022/01/07 02:52:13;;;;;;;6.70;4.27;;;;;;;;;;5074679;28;20434;-62
2022/01/07 02:54:41;;;;;;;7.63;3.80;;;;;;;;;;5074289;28;21024;-64
2022/01/07 02:57:07;;;;;;;7.97;4.13;;;;;;;;;;5074525;28;20688;-64
2022/01/07 02:59:33;;;;;;;9.53;4.20;;;;;;;;;;5074657;28;20438;-64
2022/01/07 03:01:59;;;;;;;8.17;4.33;;;;;;;;;;5074331;28;20472;-64
2022/01/07 03:04:27;;;;;;;6.63;4.07;;;;;;;;;;5074691;28;20191;-63
2022/01/07 03:06:53;;;;;;;7.03;3.90;;;;;;;;;;5074377;28;20434;-63
2022/01/07 03:09:19;;;;;;;8.23;4.13;;;;;;;;;;5074493;28;20485;-62
2022/01/07 03:11:47;;;;;;;7.57;3.77;;;;;;;;;;5074706;28;20441;-62
2022/01/07 03:14:12;;;;;;;10.27;4.30;;;;;;;;;;5074584;28;20214;-62
2022/01/07 03:16:39;;;;;;;13.33;4.40;;;;;;;;;;5074291;28;20429;-62
2022/01/07 03:19:05;;;;;;;5.17;3.43;;;;;;;;;;5074252;28;20222;-62
2022/01/07 03:21:31;;;;;;;8.00;3.80;;;;;;;;;;5074291;28;20476;-60
2022/01/07 03:23:57;;;;;;;7.07;4.00;;;;;;;;;;5074103;28;20211;-63
2022/01/07 03:26:23;;;;;;;7.67;3.40;;;;;;;;;;5074191;28;20430;-61
2022/01/07 03:28:51;;;;;;;7.70;3.47;;;;;;;;;;5074085;28;20278;-61
2022/01/07 03:31:17;;;;;;;6.60;3.20;;;;;;;;;;5074381;28;20438;-61
2022/01/07 03:33:43;;;;;;;5.13;3.40;;;;;;;;;;5074212;28;20774;-61
2022/01/07 03:36:09;;;;;;;8.47;3.87;;;;;;;;;;5073948;28;20245;-61
2022/01/07 03:38:35;;;;;;;6.03;3.10;;;;;;;;;;5074064;28;20245;-61
2022/01/07 03:41:02;;;;;;;7.23;3.90;;;;;;;;;;5073918;28;20477;-61
2022/01/07 03:43:28;;;;;;;7.03;3.23;;;;;;;;;;5073780;28;20715;-62
2022/01/07 03:45:56;;;;;;;8.23;3.63;;;;;;;;;;5073603;28;20426;-62
2022/01/07 03:48:22;;;;;;;7.53;3.00;;;;;;;;;;5073724;28;20203;-62
2022/01/07 03:50:48;;;;;;;6.70;3.37;;;;;;;;;;5073875;28;20818;-61
2022/01/07 03:53:14;;;;;;;8.00;3.70;;;;;;;;;;5073540;28;20246;-62
2022/01/07 03:55:40;;;;;;;6.80;3.50;;;;;;;;;;5073557;28;20287;-62
2022/01/07 03:58:06;;;;;;;7.70;3.33;;;;;;;;;;5073391;28;20877;-63
2022/01/07 04:00:34;;;;;;;9.00;3.20;;;;;;;;;;5073352;28;20199;-62
2022/01/07 04:03:02;;;;;;;5.37;3.40;;;;;;;;;;5073143;28;20482;-61
2022/01/07 04:05:28;;;;;;;7.73;3.60;;;;;;;;;;5073515;28;20445;-61
2022/01/07 04:07:54;;;;;;;7.23;4.27;;;;;;;;;;5072810;28;20706;-61
2022/01/07 04:10:20;;;;;;;8.90;4.33;;;;;;;;;;5073346;28;20840;-60
2022/01/07 04:12:46;;;;;;;6.10;3.87;;;;;;;;;;5073390;28;20199;-60
2022/01/07 04:15:12;;;;;;;11.00;4.10;;;;;;;;;;5073042;28;21003;-59
2022/01/07 04:17:38;;;;;;;11.57;4.73;;;;;;;;;;5073182;28;20428;-61
2022/01/07 04:20:07;;;;;;;13.77;4.63;;;;;;;;;;5073150;28;20462;-59
2022/01/07 04:22:33;;;;;;;12.83;4.43;;;;;;;;;;5073162;28;20940;-60
2022/01/07 04:24:59;;;;;;;6.53;4.30;;;;;;;;;;5072973;28;20485;-59
2022/01/07 04:27:25;;;;;;;10.13;4.33;;;;;;;;;;5072940;28;20944;-60
2022/01/07 04:29:51;;;;;;;12.27;4.80;;;;;;;;;;5073126;28;20501;-62
2022/01/07 04:32:18;;;;;;;8.63;4.50;;;;;;;;;;5072861;28;20711;-59
2022/01/07 04:34:44;;;;;;;9.07;3.87;;;;;;;;;;5072693;28;20567;-59
2022/01/07 04:37:11;;;;;;;5.00;4.10;;;;;;;;;;5072950;28;20446;-59
2022/01/07 04:39:38;;;;;;;9.43;4.30;;;;;;;;;;5073005;28;20309;-59
2022/01/07 04:42:04;;;;;;;8.27;4.40;;;;;;;;;;5072765;28;20442;-61
2022/01/07 04:44:30;;;;;;;9.00;4.23;;;;;;;;;;5072896;28;20434;-59
2022/01/07 04:46:56;;;;;;;8.53;4.37;;;;;;;;;;5072818;28;20503;-60
2022/01/07 04:49:22;;;;;;;8.50;4.77;;;;;;;;;;5072900;28;20229;-60
2022/01/07 04:51:48;;;;;;;7.53;3.90;;;;;;;;;;5073037;28;20433;-60
2022/01/07 04:54:16;;;;;;;8.60;4.23;;;;;;;;;;5072381;28;20489;-59
2022/01/07 04:56:42;;;;;;;14.47;6.37;;;;;;;;;;5072447;28;20511;-61
2022/01/07 04:59:07;;;;;;;7.50;3.97;;;;;;;;;;5072880;28;20867;-61
2022/01/07 05:01:33;;;;;;;9.40;4.40;;;;;;;;;;5072360;28;20235;-61
2022/01/07 05:03:59;;;;;;;9.30;4.33;;;;;;;;;;5072332;28;20203;-62
2022/01/07 05:08:51;;;;;;;13.13;4.97;;;;;;;;;;5072463;28;20220;-64
2022/01/07 05:11:19;;;;;;;6.37;4.13;;;;;;;;;;5072263;28;20610;-61
2022/01/07 05:13:45;;;;;;;9.63;4.67;;;;;;;;;;5072367;28;20195;-59
2022/01/07 05:16:11;;;;;;;6.30;3.73;;;;;;;;;;5072110;28;21155;-60
2022/01/07 05:18:37;;;;;;;11.03;4.70;;;;;;;;;;5071549;28;20237;-60
2022/01/07 05:21:03;;;;;;;7.30;4.43;;;;;;;;;;5072001;28;20195;-61
2022/01/07 05:23:29;;;;;;;7.80;4.23;;;;;;;;;;5072246;28;20460;-61
2022/01/07 05:25:55;;;;;;;9.20;4.20;;;;;;;;;;5072027;28;20627;-61
2022/01/07 05:28:22;;;;;;;10.90;4.93;;;;;;;;;;5072040;28;20268;-61
2022/01/07 05:30:48;;;;;;;9.13;5.13;;;;;;;;;;5072209;28;20327;-62
2022/01/07 05:33:14;;;;;;;9.87;4.67;;;;;;;;;;5071873;28;20529;-62
2022/01/07 05:35:40;;;;;;;9.23;4.93;;;;;;;;;;5072203;28;20202;-62
2022/01/07 05:38:06;;;;;;;8.87;4.60;;;;;;;;;;5071825;28;20199;-62
2022/01/07 05:40:32;;;;;;;11.43;4.53;;;;;;;;;;5071985;28;20217;-63
2022/01/07 05:42:58;;;;;;;9.67;4.53;;;;;;;;;;5071904;28;20436;-63
2022/01/07 05:45:26;;;;;;;7.47;4.40;;;;;;;;;;5071811;28;20457;-63
2022/01/07 05:47:52;;;;;;;8.77;5.10;;;;;;;;;;5071930;28;20536;-62
2022/01/07 05:50:18;;;;;;;8.30;4.07;;;;;;;;;;5071641;28;20552;-61
2022/01/07 05:52:44;;;;;;;12.20;4.87;;;;;;;;;;5070436;28;20697;-61
2022/01/07 05:55:10;;;;;;;13.73;5.07;;;;;;;;;;5071514;28;20195;-59
2022/01/07 05:57:36;;;;;;;7.37;4.23;;;;;;;;;;5071733;28;20234;-61
2022/01/07 06:00:02;;;;;;;6.90;4.50;;;;;;;;;;5071608;28;20850;-61
2022/01/07 06:02:29;;;;;;;9.80;5.10;;;;;;;;;;5071455;28;20551;-60
2022/01/07 06:04:55;;;;;;;11.63;4.57;;;;;;;;;;5071802;28;20445;-60
2022/01/07 06:07:21;;;;;;;7.93;4.50;;;;;;;;;;5071483;28;20426;-61
2022/01/07 06:09:47;;;;;;;10.20;4.63;;;;;;;;;;5071416;28;20473;-62
2022/01/07 06:12:13;;;;;;;10.03;5.13;;;;;;;;;;5071560;28;20195;-61
2022/01/07 06:14:39;;;;;;;7.20;4.70;;;;;;;;;;5071331;28;20492;-61
2022/01/07 06:17:08;;;;;;;10.30;5.40;;;;;;;;;;5071471;28;20200;-60
2022/01/07 06:19:35;;;;;;;9.00;4.70;;;;;;;;;;5071309;28;20916;-61
2022/01/07 06:22:01;;;;;;;7.47;4.70;;;;;;;;;;5071300;28;20442;-61
2022/01/07 06:24:27;;;;;;;10.07;4.87;;;;;;;;;;5071385;28;20445;-61
2022/01/07 06:26:53;;;;;;;9.90;4.57;;;;;;;;;;5071411;28;20747;-60
2022/01/07 06:29:19;;;;;;;7.47;4.43;;;;;;;;;;5071410;28;20642;-59
2022/01/07 06:31:45;;;;;;;8.30;4.90;;;;;;;;;;5074388;28;20947;-60
2022/01/07 06:34:11;;;;;;;8.67;4.57;;;;;;;;;;5075030;28;20281;-61
2022/01/07 06:36:38;;;;;;;8.10;4.97;;;;;;;;;;5074696;28;20219;-61
2022/01/07 06:39:04;;;;;;;7.00;5.27;;;;;;;;;;5074738;28;20208;-59
2022/01/07 06:41:31;;;;;;;6.37;4.70;;;;;;;;;;5074833;28;20434;-61
2022/01/07 06:43:57;;;;;;;8.33;5.07;;;;;;;;;;5074744;28;20508;-60
2022/01/07 06:46:23;;;;;;;9.83;5.03;;;;;;;;;;5074613;28;20886;-60
2022/01/07 06:48:49;;;;;;;9.27;5.80;;;;;;;;;;5074974;28;20203;-62
2022/01/07 06:51:15;;;;;;;10.60;5.03;;;;;;;;;;5074641;28;20441;-61
2022/01/07 06:53:42;;;;;;;7.97;5.67;;;;;;;;;;5074557;28;20729;-62
2022/01/07 06:56:08;;;;;;;7.23;5.27;;;;;;;;;;5074309;28;20791;-61
2022/01/07 06:58:34;;;;;;;7.33;5.43;;;;;;;;;;5074549;28;20537;-61
2022/01/07 07:01:00;;;;;;;10.30;5.07;;;;;;;;;;5074378;28;20200;-61
2022/01/07 07:03:26;;;;;;;7.27;5.20;;;;;;;;;;5074269;28;20285;-61
2022/01/07 07:05:52;;;;;;;7.47;5.37;;;;;;;;;;5074402;28;20222;-60
2022/01/07 07:08:18;;;;;;;9.10;5.23;;;;;;;;;;5074196;28;20195;-61
2022/01/07 07:10:45;;;;;;;8.37;5.17;;;;;;;;;;5074218;28;20546;-61
2022/01/07 07:13:11;;;;;;;8.73;4.90;;;;;;;;;;5074010;28;20437;-61
2022/01/07 07:15:38;;;;;;;8.20;4.80;;;;;;;;;;5074102;28;20445;-61
2022/01/07 07:18:04;;;;;;;6.73;5.10;;;;;;;;;;5073323;28;20495;-62
2022/01/07 07:20:30;;;;;;;7.73;5.13;;;;;;;;;;5074239;28;20438;-62
2022/01/07 07:22:56;;;;;;;8.13;4.93;;;;;;;;;;5074132;28;20739;-62
2022/01/07 07:25:23;;;;;;;9.40;5.30;;;;;;;;;;5073860;28;20200;-61
2022/01/07 07:27:51;;;;;;;10.07;6.43;;;;;;;;;;5074069;28;20487;-61
2022/01/07 07:30:17;;;;;;;9.73;5.20;;;;;;;;;;5073630;28;20665;-62
2022/01/07 07:32:43;;;;;;;7.93;4.60;;;;;;;;;;5073916;28;20929;-62
2022/01/07 07:37:44;;;;;;;8.60;5.10;;;;;;;;;;5073855;28;20199;-62
2022/01/07 07:40:11;;;;;;;5.87;4.67;;;;;;;;;;5073467;28;20446;-61
2022/01/07 07:42:37;;;;;;;5.93;4.43;;;;;;;;;;5072348;28;20418;-62
2022/01/07 07:45:04;;;;;;;8.17;4.60;;;;;;;;;;5071952;28;20985;-61
2022/01/07 07:47:30;;;;;;;5.87;4.53;;;;;;;;;;5073340;28;20204;-62
2022/01/07 07:49:57;;;;;;;7.53;4.70;;;;;;;;;;5073737;28;20473;-62
2022/01/07 07:52:23;;;;;;;6.03;5.00;;;;;;;;;;5073370;28;20208;-62
2022/01/07 07:54:49;;;;;;;5.80;5.07;;;;;;;;;;5073061;28;20457;-62
2022/01/07 07:57:15;;;;;;;8.40;4.90;;;;;;;;;;5073212;28;20426;-63
2022/01/07 07:59:41;;;;;;;7.77;4.53;;;;;;;;;;5073069;28;20283;-63
2022/01/07 08:02:09;;;;;;;7.07;4.23;;;;;;;;;;5073142;28;20572;-61
2022/01/07 08:04:37;;;;;;;5.47;4.37;;;;;;;;;;5073535;28;20231;-62
2022/01/07 08:07:03;;;;;;;4.83;4.33;;;;;;;;;;5073181;28;20434;-63
2022/01/07 08:09:33;;;;;;;8.10;4.60;;;;;;;;;;5072781;28;20484;-61
2022/01/07 08:12:07;;;;;;;8.93;4.70;;;;;;;;;;5073207;28;20433;-62
2022/01/07 08:17:19;;;;;;;4.50;4.10;;;;;;;;;;5073141;28;20429;-62
2022/01/07 08:19:45;;;;;;;6.00;4.47;;;;;;;;;;5073244;28;20434;-62
2022/01/07 08:22:11;;;;;;;5.20;4.27;;;;;;;;;;5072743;28;20464;-63
2022/01/07 08:24:37;;;;;;;6.13;4.73;;;;;;;;;;5072866;28;20203;-62
2022/01/07 08:27:04;;;;;;;5.93;4.10;;;;;;;;;;5073175;28;20438;-62
2022/01/07 08:29:32;;;;;;;7.23;4.30;;;;;;;;;;5072806;28;20466;-62
2022/01/07 08:34:53;;;;;;;4.97;4.47;;;;;;;;;;5072942;28;20501;-63
2022/01/07 08:37:20;;;;;;;6.57;4.87;;;;;;;;;;5072655;28;20441;-63
2022/01/07 08:39:46;;;;;;;5.30;4.60;;;;;;;;;;5072911;28;20448;-60
2022/01/07 08:42:12;;;;;;;6.63;4.73;;;;;;;;;;5072550;28;20441;-64
2022/01/07 08:44:38;;;;;;;6.60;4.33;;;;;;;;;;5072417;28;20196;-62
2022/01/07 08:47:05;;;;;;;8.47;4.57;;;;;;;;;;5072504;28;20433;-62
2022/01/07 08:49:31;;;;;;;5.37;4.37;;;;;;;;;;5072377;28;20470;-63
2022/01/07 08:51:59;;;;;;;9.73;4.73;;;;;;;;;;5072496;28;20542;-63
2022/01/07 08:54:25;;;;;;;7.63;4.97;;;;;;;;;;5071957;28;20222;-62
2022/01/07 08:56:51;;;;;;;6.90;4.70;;;;;;;;;;5072339;28;20529;-63
2022/01/07 08:59:17;;;;;;;4.57;4.13;;;;;;;;;;5072344;28;20450;-63
2022/01/07 09:01:43;;;;;;;7.43;4.67;;;;;;;;;;5072160;28;20434;-63
2022/01/07 09:04:09;;;;;;;7.53;4.47;;;;;;;;;;5072236;28;20805;-61
2022/01/07 09:06:35;;;;;;;6.80;4.87;;;;;;;;;;5072268;28;20433;-63
2022/01/07 09:09:03;;;;;;;6.33;4.53;;;;;;;;;;5072237;28;20434;-62
2022/01/07 09:11:29;;;;;;;5.13;4.63;;;;;;;;;;5072045;28;20488;-62
2022/01/07 09:13:58;;;;;;;6.30;5.00;;;;;;;;;;5071970;28;20442;-62
2022/01/07 09:16:25;;;;;;;6.33;5.10;;;;;;;;;;5072202;28;20200;-61
2022/01/07 09:18:51;;;;;;;5.60;5.00;;;;;;;;;;5072392;28;20457;-63
2022/01/07 09:21:17;;;;;;;8.83;4.83;;;;;;;;;;5072114;28;20433;-62
2022/01/07 09:23:44;;;;;;;6.57;5.47;;;;;;;;;;5072244;28;20253;-62
2022/01/07 09:26:12;;;;;;;7.07;5.17;;;;;;;;;;5072003;28;20430;-61
2022/01/07 09:28:38;;;;;;;11.27;6.53;;;;;;;;;;5071733;28;20446;-60
2022/01/07 09:31:04;;;;;;;9.40;6.17;;;;;;;;;;5071846;28;20478;-61
2022/01/07 09:33:30;;;;;;;6.93;5.67;;;;;;;;;;5071921;28;20434;-61
2022/01/07 09:35:56;;;;;;;6.37;5.70;;;;;;;;;;5071935;28;20203;-61
2022/01/07 09:38:22;;;;;;;7.20;5.67;;;;;;;;;;5071988;28;20282;-60
2022/01/07 09:40:48;;;;;;;6.87;6.17;;;;;;;;;;5071936;28;20215;-61
2022/01/07 09:43:16;;;;;;;8.97;6.20;;;;;;;;;;5071699;28;20437;-62
2022/01/07 09:45:42;;;;;;;7.77;6.17;;;;;;;;;;5071482;28;20429;-62
2022/01/07 09:48:08;;;;;;;8.93;6.77;;;;;;;;;;5070989;28;20448;-61
2022/01/07 09:50:35;;;;;;;9.67;6.87;;;;;;;;;;5071416;28;20516;-63
2022/01/07 09:53:04;;;;;;;7.17;6.47;;;;;;;;;;5071850;28;20480;-60
2022/01/07 09:55:30;;;;;;;8.77;6.70;;;;;;;;;;5071759;28;20452;-61
2022/01/07 09:57:56;;;;;;;9.00;6.70;;;;;;;;;;5071592;28;20924;-61
2022/01/07 10:00:23;;;;;;;7.87;6.77;;;;;;;;;;5071594;28;20287;-62
2022/01/07 10:02:59;;;;;;;9.53;6.97;;;;;;;;;;5071490;28;20470;-62
2022/01/07 10:05:26;;;;;;;9.73;7.73;;;;;;;;;;5072404;28;20425;-61
2022/01/07 10:07:52;;;;;;;9.47;7.13;;;;;;;;;;5075556;28;20477;-62
2022/01/07 10:10:19;;;;;;;9.73;6.97;;;;;;;;;;5075520;28;20862;-62
2022/01/07 10:12:49;;;;;;;11.87;7.50;;;;;;;;;;5075567;28;20490;-62
2022/01/07 10:15:16;;;;;;;9.27;7.70;;;;;;;;;;5075680;28;20514;-62
2022/01/07 10:17:54;;;;;;;9.27;7.47;;;;;;;;;;5075243;28;20467;-62
2022/01/07 10:20:22;;;;;;;8.77;7.63;;;;;;;;;;5075402;28;20430;-62
2022/01/07 10:22:49;;;;;;;9.83;7.10;;;;;;;;;;5075486;28;20452;-60
2022/01/07 10:25:20;;;;;;;8.13;6.67;;;;;;;;;;5075273;28;20537;-66
2022/01/07 10:27:46;;;;;;;11.97;8.00;;;;;;;;;;5075234;28;20432;-64
2022/01/07 10:30:12;;;;;;;9.37;8.10;;;;;;;;;;5075079;28;20548;-64
2022/01/07 10:32:39;;;;;;;8.70;7.83;;;;;;;;;;5074925;28;20426;-66
2022/01/07 10:35:10;;;;;;;10.23;7.83;;;;;;;;;;5069669;28;20482;-67
2022/01/07 10:37:37;;;;;;;10.07;8.20;;;;;;;;;;5074791;28;20434;-66
2022/01/07 10:40:19;;;;;;;11.03;8.03;;;;;;;;;;5074925;28;20438;-65
2022/01/07 10:42:45;;;;;;;10.13;8.70;;;;;;;;;;5074967;28;20442;-64
2022/01/07 10:45:11;;;;;;;9.90;8.40;;;;;;;;;;5074768;28;20441;-65
2022/01/07 10:47:37;;;;;;;10.83;8.97;;;;;;;;;;5074343;28;20433;-66
2022/01/07 10:50:17;;;;;;;12.90;8.93;;;;;;;;;;5074777;28;20564;-65
2022/01/07 10:52:43;;;;;;;16.57;9.30;;;;;;;;;;5071470;28;20545;-63
2022/01/07 10:55:10;;;;;;;9.97;8.17;;;;;;;;;;5073452;28;20520;-64
2022/01/07 10:57:37;;;;;;;10.70;8.30;;;;;;;;;;5074080;28;20860;-63
2022/01/07 11:00:04;;;;;;;11.93;8.37;;;;;;;;;;5074430;28;20442;-64
2022/01/07 11:02:33;;;;;;;12.87;9.10;;;;;;;;;;5074144;28;20465;-64
2022/01/07 11:04:59;;;;;;;11.03;8.67;;;;;;;;;;5074498;28;20509;-64
2022/01/07 11:07:28;;;;;;;13.33;9.43;;;;;;;;;;5073887;28;20613;-64
2022/01/07 11:09:56;;;;;;;11.97;9.47;;;;;;;;;;5073838;28;20214;-65
2022/01/07 11:12:22;;;;;;;13.07;9.60;;;;;;;;;;5073871;28;20792;-64
2022/01/07 11:14:48;;;;;;;11.40;9.90;;;;;;;;;;5074096;28;20434;-65
2022/01/07 11:17:21;;;;;;;11.87;9.27;;;;;;;;;;5072718;28;20437;-64
2022/01/07 11:19:49;;;;;;;9.60;8.70;;;;;;;;;;5073951;28;20733;-64
2022/01/07 11:22:15;;;;;;;10.37;9.17;;;;;;;;;;5073885;28;20480;-64
2022/01/07 11:24:44;;;;;;;14.33;10.07;;;;;;;;;;5073767;28;20442;-66
2022/01/07 11:27:11;;;;;;;14.40;9.97;;;;;;;;;;5073703;28;20449;-64
2022/01/07 11:29:39;;;;;;;12.10;9.70;;;;;;;;;;5073381;28;20499;-65
2022/01/07 11:32:29;;;;;;;11.93;9.40;;;;;;;;;;5073697;28;20426;-65
2022/01/07 11:34:56;;;;;;;14.67;10.60;;;;;;;;;;5058159;28;20967;-64
2022/01/07 11:37:40;;;;;;;14.90;11.07;;;;;;;;;;5073481;28;20481;-66
2022/01/07 11:40:07;;;;;;;15.77;11.37;;;;;;;;;;5073469;28;20438;-65
2022/01/07 11:42:38;;;;;;;16.70;12.17;;;;;;;;;;5073029;28;20459;-64
2022/01/07 11:45:19;;;;;;;16.40;12.07;;;;;;;;;;5073175;28;20492;-65
2022/01/07 11:47:49;;;;;;;17.13;11.33;;;;;;;;;;5073075;28;20771;-65
2022/01/07 11:50:15;;;;;;;15.57;11.87;;;;;;;;;;5073579;28;20520;-65
2022/01/07 11:52:41;;;;;;;13.67;11.87;;;;;;;;;;5073217;28;20466;-64
2022/01/07 11:55:24;;;;;;;14.80;11.80;;;;;;;;;;5072941;28;20735;-64
2022/01/07 11:57:52;;;;;;;13.97;11.37;;;;;;;;;;5073172;28;20441;-64
2022/01/07 12:00:32;;;;;;;15.80;11.90;;;;;;;;;;5073338;28;20434;-64
2022/01/07 12:03:03;;;;;;;14.30;11.90;;;;;;;;;;5072986;28;20491;-66
2022/01/07 12:05:29;;;;;;;13.43;11.97;;;;;;;;;;5073308;28;20535;-66
2022/01/07 12:07:55;;;;;;;14.90;11.60;;;;;;;;;;5073153;28;20808;-66
2022/01/07 12:10:23;;;;;;;16.77;11.87;;;;;;;;;;5073023;28;20500;-65
2022/01/07 12:12:50;;;;;;;14.40;12.20;;;;;;;;;;5073241;28;20191;-66
2022/01/07 12:15:16;;;;;;;19.67;12.37;;;;;;;;;;5073260;28;20975;-65
2022/01/07 12:17:42;;;;;;;14.40;12.13;;;;;;;;;;5072954;28;20463;-65
2022/01/07 12:20:23;;;;;;;22.30;13.00;;;;;;;;;;5073204;28;20491;-65
2022/01/07 12:22:52;;;;;;;15.73;13.10;;;;;;;;;;5072927;28;20977;-66
2022/01/07 12:25:19;;;;;;;17.37;12.40;;;;;;;;;;5072848;28;20943;-65
2022/01/07 12:27:46;;;;;;;16.40;11.97;;;;;;;;;;5072473;28;20442;-66
2022/01/07 12:30:13;;;;;;;20.50;12.63;;;;;;;;;;5072913;28;20488;-66
2022/01/07 12:32:39;;;;;;;14.90;12.87;;;;;;;;;;5072840;28;20562;-65
2022/01/07 12:35:06;;;;;;;18.17;13.47;;;;;;;;;;5072776;28;20452;-66
2022/01/07 12:37:32;;;;;;;18.03;12.70;;;;;;;;;;5072730;28;20460;-65
2022/01/07 12:39:59;;;;;;;17.03;12.90;;;;;;;;;;5072603;28;20843;-65
2022/01/07 12:42:25;;;;;;;18.50;13.43;;;;;;;;;;5072471;28;20433;-66
2022/01/07 12:44:57;;;;;;;19.33;14.23;;;;;;;;;;5072190;28;20422;-65
2022/01/07 12:47:24;;;;;;;15.73;13.83;;;;;;;;;;5072221;28;20437;-65
2022/01/07 12:49:51;;;;;;;18.97;13.40;;;;;;;;;;5072345;28;20568;-66
2022/01/07 12:52:19;;;;;;;18.50;13.83;;;;;;;;;;5072570;28;20457;-64
2022/01/07 12:54:56;;;;;;;16.47;13.73;;;;;;;;;;5072298;28;20513;-66
2022/01/07 12:57:24;;;;;;;20.77;14.73;;;;;;;;;;5072170;28;20487;-65
2022/01/07 13:00:03;;;;;;;19.60;13.93;;;;;;;;;;5072153;28;20430;-65
2022/01/07 13:02:29;;;;;;;16.90;13.43;;;;;;;;;;5072070;28;20819;-64
2022/01/07 13:05:09;;;;;;;15.33;12.57;;;;;;;;;;5072243;28;20476;-64
2022/01/07 13:07:39;;;;;;;17.00;12.57;;;;;;;;;;5072053;28;20450;-66
2022/01/07 13:10:05;;;;;;;16.50;13.00;;;;;;;;;;5072073;28;20479;-65
2022/01/07 13:12:31;;;;;;;18.67;12.50;;;;;;;;;;5072148;28;20445;-65
2022/01/07 13:14:57;;;;;;;14.97;12.33;;;;;;;;;;5071907;28;20447;-64
2022/01/07 13:17:28;;;;;;;18.67;12.57;;;;;;;;;;5072153;28;20432;-65
2022/01/07 13:19:54;;;;;;;16.37;12.50;;;;;;;;;;5071704;28;20203;-65
2022/01/07 13:22:23;;;;;;;17.63;13.03;;;;;;;;;;5072069;28;20914;-66
2022/01/07 13:24:50;;;;;;;14.20;11.90;;;;;;;;;;5071904;28;20936;-64
2022/01/07 13:27:16;;;;;;;16.17;12.17;;;;;;;;;;5072069;28;20495;-65
2022/01/07 13:29:46;;;;;;;14.70;12.43;;;;;;;;;;5071702;28;20944;-65
2022/01/07 13:32:12;;;;;;;18.23;12.70;;;;;;;;;;5071845;28;20246;-65
2022/01/07 13:34:40;;;;;;;20.30;12.17;;;;;;;;;;5071579;28;20853;-65
2022/01/07 13:37:07;;;;;;;17.47;13.00;;;;;;;;;;5071932;28;20448;-66
2022/01/07 13:39:38;;;;;;;20.03;11.90;;;;;;;;;;5071323;28;20491;-65
2022/01/07 13:42:05;;;;;;;16.37;12.13;;;;;;;;;;5071685;28;20430;-65
2022/01/07 13:44:32;;;;;;;15.23;11.40;;;;;;;;;;5071888;28;20458;-64
2022/01/07 13:46:59;;;;;;;20.10;14.33;;;;;;;;;;5071607;28;20518;-64
2022/01/07 13:49:25;;;;;;;16.47;12.60;;;;;;;;;;5071895;28;21185;-65
2022/01/07 13:51:56;;;;;;;18.13;13.20;;;;;;;;;;5071728;28;20422;-64
2022/01/07 13:54:25;;;;;;;15.50;11.97;;;;;;;;;;5071522;28;20466;-64
2022/01/07 13:56:57;;;;;;;17.87;13.47;;;;;;;;;;5071496;28;20861;-65
2022/01/07 13:59:24;;;;;;;16.30;11.47;;;;;;;;;;5071634;28;20449;-65
2022/01/07 14:01:57;;;;;;;16.67;11.80;;;;;;;;;;5071448;28;20434;-66
2022/01/07 14:04:38;;;;;;;14.37;10.20;;;;;;;;;;5071478;28;20438;-69
2022/01/07 14:07:18;;;;;;;13.00;10.47;;;;;;;;;;5069981;28;20433;-67
2022/01/07 14:12:47;;;;;;;11.83;10.37;;;;;;;;;;5089346;28;20621;-66
2022/01/07 14:15:14;;;;;;;12.37;10.33;;;;;;;;;;5087546;28;20934;-67
2022/01/07 14:17:41;;;;;;;14.13;10.33;;;;;;;;;;5089346;28;20440;-66
2022/01/07 14:20:08;;;;;;;13.13;10.80;;;;;;;;;;5089380;28;20527;-65
2022/01/07 14:22:39;;;;;;;12.37;10.53;;;;;;;;;;5089402;28;20433;-67
2022/01/07 14:25:05;;;;;;;13.37;10.13;;;;;;;;;;5089275;28;21140;-65
2022/01/07 14:27:33;;;;;;;14.67;10.67;;;;;;;;;;5088992;28;20520;-67
2022/01/07 14:30:01;;;;;;;13.07;10.93;;;;;;;;;;5088942;28;20442;-66
2022/01/07 14:32:27;;;;;;;14.10;10.23;;;;;;;;;;5088928;28;20476;-68
2022/01/07 14:34:56;;;;;;;15.27;10.27;;;;;;;;;;5088826;28;20779;-67
2022/01/07 14:37:23;;;;;;;11.90;10.20;;;;;;;;;;5088956;28;20440;-67
2022/01/07 14:39:49;;;;;;;15.13;10.00;;;;;;;;;;5088784;28;20516;-67
2022/01/07 14:42:15;;;;;;;12.47;10.23;;;;;;;;;;5088563;28;20548;-66
2022/01/07 14:44:41;;;;;;;14.77;10.80;;;;;;;;;;5088396;28;20596;-66
2022/01/07 14:47:09;;;;;;;12.20;9.77;;;;;;;;;;5088770;28;20428;-67